createdAt,value
2022-10-12T00:00:31.210Z,10.60
2022-10-12T00:05:33.564Z,10.50
2022-10-12T00:10:43.813Z,10.50
2022-10-12T00:15:46.655Z,10.60
2022-10-12T00:21:04.959Z,10.60
2022-10-12T00:26:28.896Z,10.40
2022-10-12T00:31:31.913Z,10.30
2022-10-12T00:36:36.097Z,10.20
2022-10-12T00:41:42.935Z,10.20
2022-10-12T00:46:46.239Z,10.10
2022-10-12T00:51:53.769Z,10.10
2022-10-12T00:56:58.370Z,10.00
2022-10-12T01:02:01.021Z,10.10
2022-10-12T01:07:04.484Z,10.20
2022-10-12T01:12:08.527Z,10.30
2022-10-12T01:17:50.348Z,10.40
2022-10-12T01:23:02.592Z,10.60
2022-10-12T01:28:49.330Z,10.60
2022-10-12T01:34:00.088Z,10.80
2022-10-12T01:39:18.296Z,10.80
2022-10-12T01:44:22.634Z,10.80
2022-10-12T01:49:32.454Z,10.80
2022-10-12T01:54:47.873Z,10.70
2022-10-12T02:00:16.949Z,10.60
2022-10-12T02:05:22.112Z,10.50
2022-10-12T02:10:52.605Z,10.30
2022-10-12T02:15:58.660Z,10.00
2022-10-12T02:21:01.584Z,10.00
2022-10-12T02:26:05.015Z,10.00
2022-10-12T02:31:25.784Z,10.00
2022-10-12T02:37:02.122Z,10.10
2022-10-12T02:42:12.927Z,10.10
2022-10-12T02:47:17.128Z,10.20
2022-10-12T02:52:20.813Z,10.30
2022-10-12T02:57:23.139Z,10.40
2022-10-12T03:02:25.471Z,10.40
2022-10-12T03:07:27.870Z,10.20
2022-10-12T03:12:30.192Z,10.00
2022-10-12T03:17:33.492Z,9.70
2022-10-12T03:22:35.742Z,9.50
2022-10-12T03:27:38.215Z,9.30
2022-10-12T03:32:40.714Z,9.20
2022-10-12T03:37:42.999Z,9.10
2022-10-12T03:42:45.275Z,9.20
2022-10-12T03:47:48.203Z,9.20
2022-10-12T03:52:50.512Z,9.30
2022-10-12T03:57:52.838Z,9.30
2022-10-12T04:02:55.737Z,9.30
2022-10-12T04:07:58.671Z,9.10
2022-10-12T04:13:00.978Z,9.00
2022-10-12T04:18:03.415Z,9.00
2022-10-12T04:23:05.602Z,9.00
2022-10-12T04:28:07.899Z,9.00
2022-10-12T04:33:10.099Z,8.90
2022-10-12T04:38:13.467Z,8.80
2022-10-12T04:43:16.630Z,8.90
2022-10-12T04:48:18.869Z,8.80
2022-10-12T04:53:21.440Z,8.90
2022-10-12T04:58:23.891Z,8.90
2022-10-12T05:03:26.137Z,8.90
2022-10-12T05:08:28.482Z,8.80
2022-10-12T05:13:30.830Z,8.80
2022-10-12T05:18:32.949Z,8.80
2022-10-12T05:23:35.169Z,8.80
2022-10-12T05:28:41.097Z,8.80
2022-10-12T05:33:43.607Z,8.70
2022-10-12T05:38:45.749Z,8.60
2022-10-12T05:43:47.915Z,8.60
2022-10-12T05:48:50.110Z,8.60
2022-10-12T05:53:52.405Z,8.50
2022-10-12T05:58:54.574Z,8.40
2022-10-12T06:03:56.889Z,8.40
2022-10-12T06:08:59.128Z,8.30
2022-10-12T06:14:01.286Z,8.20
2022-10-12T06:19:03.928Z,8.10
2022-10-12T06:24:06.705Z,7.90
2022-10-12T06:29:12.848Z,7.80
2022-10-12T06:34:16.571Z,7.80
2022-10-12T06:39:19.968Z,7.80
2022-10-12T06:44:22.621Z,7.90
2022-10-12T06:49:27.892Z,8.00
2022-10-12T06:54:30.073Z,8.10
2022-10-12T06:59:32.185Z,8.10
2022-10-12T07:04:34.391Z,8.10
2022-10-12T07:09:36.666Z,8.20
2022-10-12T07:14:39.060Z,8.30
2022-10-12T07:19:41.198Z,8.30
2022-10-12T07:24:43.321Z,8.40
2022-10-12T07:29:45.461Z,8.40
2022-10-12T07:34:47.576Z,8.60
2022-10-12T07:39:49.930Z,8.70
2022-10-12T07:44:52.173Z,8.90
2022-10-12T07:49:54.430Z,9.10
2022-10-12T07:54:56.532Z,9.20
2022-10-12T07:59:58.812Z,9.30
2022-10-12T08:05:01.028Z,9.40
2022-10-12T08:10:03.361Z,9.50
2022-10-12T08:15:06.359Z,9.70
2022-10-12T08:20:09.214Z,9.90
2022-10-12T08:25:11.578Z,10.20
2022-10-12T08:30:17.094Z,10.50
2022-10-12T08:35:22.897Z,10.80
2022-10-12T08:40:35.193Z,11.20
2022-10-12T08:45:57.788Z,11.60
2022-10-12T08:51:06.185Z,12.20
2022-10-12T09:02:11.347Z,12.90
2022-10-12T09:07:40.350Z,13.10
2022-10-12T09:13:01.196Z,13.60
2022-10-12T09:19:15.485Z,13.80
2022-10-12T09:47:30.607Z,15.00
2022-10-12T10:00:01.111Z,15.40
2022-10-12T10:25:37.784Z,15.10
2022-10-12T10:44:38.001Z,16.40
2022-10-12T10:56:39.443Z,16.00
2022-10-12T11:02:20.743Z,16.70
2022-10-12T11:07:59.030Z,16.90
2022-10-12T11:20:36.552Z,16.60
2022-10-12T11:33:12.756Z,16.50
2022-10-12T11:39:34.444Z,16.70
2022-10-12T11:51:29.554Z,16.50
2022-10-12T11:57:10.368Z,16.50
2022-10-12T12:09:29.182Z,17.00
2022-10-12T12:15:22.667Z,17.20
2022-10-12T12:26:21.847Z,16.70
2022-10-12T12:37:33.070Z,16.60
2022-10-12T12:42:44.215Z,16.60
2022-10-12T12:54:03.188Z,16.40
2022-10-12T13:05:42.243Z,16.40
2022-10-12T13:11:22.775Z,16.40
2022-10-12T13:22:37.588Z,16.60
2022-10-12T13:27:51.687Z,16.80
2022-10-12T13:33:32.608Z,16.80
2022-10-12T13:39:00.148Z,16.60
2022-10-12T13:44:42.911Z,16.50
2022-10-12T13:49:56.596Z,16.50
2022-10-12T14:00:51.241Z,16.80
2022-10-12T14:06:02.205Z,16.70
2022-10-12T14:11:07.076Z,16.60
2022-10-12T14:16:16.725Z,16.60
2022-10-12T14:21:44.794Z,16.50
2022-10-12T14:27:09.448Z,16.50
2022-10-12T14:32:27.654Z,16.50
2022-10-12T14:37:39.906Z,16.50
2022-10-12T14:43:21.116Z,16.50
2022-10-12T14:48:58.312Z,16.40
2022-10-12T14:54:25.444Z,16.30
2022-10-12T14:59:33.846Z,16.30
2022-10-12T15:04:44.755Z,16.20
2022-10-12T15:10:00.441Z,16.10
2022-10-12T15:15:42.237Z,16.10
2022-10-12T15:21:09.047Z,16.10
2022-10-12T15:26:17.505Z,16.00
2022-10-12T15:31:29.531Z,15.80
2022-10-12T15:36:33.308Z,15.70
2022-10-12T15:41:45.476Z,15.70
2022-10-12T15:46:57.201Z,15.60
2022-10-12T15:52:32.937Z,15.60
2022-10-12T16:03:44.883Z,15.50
2022-10-12T16:09:05.295Z,15.40
2022-10-12T16:14:44.399Z,15.30
2022-10-12T16:26:26.352Z,15.20
2022-10-12T16:31:50.548Z,15.00
2022-10-12T16:37:27.372Z,14.90
2022-10-12T16:48:36.273Z,14.70
2022-10-12T16:54:09.061Z,14.70
2022-10-12T17:00:09.502Z,14.60
2022-10-12T17:06:15.080Z,14.50
2022-10-12T17:12:27.117Z,14.50
2022-10-12T17:24:30.852Z,14.40
2022-10-12T17:29:45.762Z,14.40
2022-10-12T17:46:50.505Z,14.20
2022-10-12T18:03:46.995Z,13.90
2022-10-12T18:09:36.155Z,13.80
2022-10-12T18:15:07.453Z,13.80
2022-10-12T18:26:52.288Z,13.70
2022-10-12T18:38:42.103Z,13.60
2022-10-12T19:27:17.734Z,13.30
2022-10-12T20:17:49.192Z,13.10
2022-10-12T20:43:37.622Z,13.10
2022-10-12T21:41:50.347Z,13.20
2022-10-12T21:47:06.505Z,13.10
2022-10-12T21:52:16.392Z,13.00
2022-10-12T21:57:36.301Z,12.80
2022-10-12T22:08:30.943Z,12.70
2022-10-12T22:13:50.982Z,12.60
2022-10-12T22:18:58.930Z,12.60
2022-10-12T22:24:09.360Z,12.50
2022-10-12T22:29:11.947Z,12.50
2022-10-12T22:34:16.477Z,12.50
2022-10-12T22:39:23.719Z,12.50
2022-10-12T22:44:39.000Z,12.50
2022-10-12T22:49:48.244Z,12.50
2022-10-12T22:54:52.437Z,12.50
2022-10-12T23:00:03.650Z,12.50
2022-10-12T23:05:20.449Z,12.50
2022-10-12T23:10:27.308Z,12.50
2022-10-12T23:21:01.194Z,12.50
2022-10-12T23:26:23.064Z,12.50
2022-10-12T23:31:29.974Z,12.60
2022-10-12T23:36:45.493Z,12.60
2022-10-12T23:41:48.027Z,12.60
2022-10-12T23:46:51.639Z,12.60
2022-10-12T23:51:58.871Z,12.60
2022-10-12T23:57:02.544Z,12.60
